Time;durP1;ratioP1;P1;durP2;ratioP2;P2;SDS_P1;SDS_P2;PMS_P1;PMS_P2;Temp;Humidity;BMP_temperature;BMP_pressure;BME280_temperature;BME280_humidity;BME280_pressure;Samples;Min_cycle;Max_cycle;Signal;HPM_P1;HPM_P2
2022/10/07 00:00:21;;;;;;;19.30;3.90;;;10.20;99.90;;;;;;5072902;28;20070;-46
2022/10/07 00:02:46;;;;;;;10.05;2.83;;;10.30;99.90;;;;;;5072570;28;20044;-49
2022/10/07 00:05:12;;;;;;;11.23;2.80;;;10.20;99.90;;;;;;5072819;28;20378;-47
2022/10/07 00:07:37;;;;;;;18.90;4.05;;;10.20;99.90;;;;;;5072695;28;20540;-48
2022/10/07 00:10:03;;;;;;;19.65;3.08;;;10.10;99.90;;;;;;5072588;28;20069;-45
2022/10/07 00:12:29;;;;;;;20.00;4.20;;;10.20;99.90;;;;;;5055148;28;20425;-44
2022/10/07 00:14:54;;;;;;;14.25;3.30;;;10.10;99.90;;;;;;5064095;28;20025;-45
2022/10/07 00:17:20;;;;;;;12.57;3.13;;;10.10;99.90;;;;;;5072600;28;20025;-44
2022/10/07 00:19:46;;;;;;;15.38;3.25;;;10.10;99.90;;;;;;5071118;28;20461;-45
2022/10/07 00:22:11;;;;;;;13.45;2.70;;;10.10;99.90;;;;;;5071075;28;20032;-45
2022/10/07 00:24:37;;;;;;;9.43;2.97;;;10.10;99.90;;;;;;5071836;28;20399;-45
2022/10/07 00:27:02;;;;;;;12.85;2.88;;;10.00;99.90;;;;;;5072063;28;20035;-46
2022/10/07 00:29:28;;;;;;;13.68;2.65;;;10.00;99.90;;;;;;5072709;28;20017;-44
2022/10/07 00:31:53;;;;;;;7.60;2.53;;;10.00;99.90;;;;;;5072670;28;20021;-44
2022/10/07 00:34:19;;;;;;;19.15;3.03;;;10.00;99.90;;;;;;5071877;28;20035;-46
2022/10/07 00:36:45;;;;;;;11.25;3.00;;;10.00;99.90;;;;;;5072487;28;20064;-45
2022/10/07 00:39:13;;;;;;;12.70;3.47;;;10.10;99.90;;;;;;5072196;28;20063;-48
2022/10/07 00:41:49;;;;;;;16.65;4.60;;;10.10;99.90;;;;;;5060028;28;20025;-44
2022/10/07 00:44:29;;;;;;;14.40;3.47;;;10.20;99.90;;;;;;5060173;28;20112;-44
2022/10/07 00:47:15;;;;;;;12.65;2.75;;;10.20;99.90;;;;;;5071581;28;20035;-46
2022/10/07 00:49:57;;;;;;;6.55;2.60;;;10.20;99.90;;;;;;5071531;28;20485;-45
2022/10/07 00:52:27;;;;;;;13.45;2.70;;;10.20;99.90;;;;;;5071376;28;20282;-45
2022/10/07 00:54:55;;;;;;;10.13;3.22;;;10.20;99.90;;;;;;5071770;28;20024;-46
2022/10/07 00:57:23;;;;;;;9.23;3.20;;;10.20;99.90;;;;;;5071510;28;20033;-45
2022/10/07 00:59:50;;;;;;;8.15;2.65;;;10.20;99.90;;;;;;5070869;28;20033;-45
2022/10/07 01:02:15;;;;;;;10.85;2.45;;;10.30;99.90;;;;;;5071186;28;20031;-45
2022/10/07 01:04:41;;;;;;;9.85;3.10;;;10.20;99.90;;;;;;5071186;28;20028;-45
2022/10/07 01:07:07;;;;;;;13.05;3.38;;;10.30;99.90;;;;;;5071632;28;20070;-45
2022/10/07 01:09:33;;;;;;;7.70;2.95;;;10.20;99.90;;;;;;5071677;28;20082;-44
2022/10/07 01:12:24;;;;;;;17.63;3.38;;;10.10;99.90;;;;;;5056162;28;20151;-45
2022/10/07 01:15:02;;;;;;;9.95;2.70;;;10.10;99.90;;;;;;5054374;28;20108;-45
2022/10/07 01:17:46;;;;;;;13.23;3.38;;;10.00;99.90;;;;;;5070511;28;20090;-44
2022/10/07 01:20:17;;;;;;;19.10;3.22;;;9.90;99.90;;;;;;5071593;28;20263;-44
2022/10/07 01:22:54;;;;;;;8.60;2.67;;;9.90;99.90;;;;;;5071099;28;20040;-45
2022/10/07 01:25:53;;;;;;;10.65;2.92;;;9.80;99.90;;;;;;5071325;28;20115;-45
2022/10/07 01:28:22;;;;;;;15.60;3.22;;;9.80;99.90;;;;;;5070999;28;20044;-44
2022/10/07 01:30:53;;;;;;;15.60;3.35;;;9.80;99.90;;;;;;5061102;28;20013;-45
2022/10/07 01:33:26;;;;;;;7.88;2.67;;;9.80;99.90;;;;;;5070014;28;20476;-45
2022/10/07 01:35:54;;;;;;;16.83;2.88;;;9.80;99.90;;;;;;5071272;28;20039;-44
2022/10/07 01:38:25;;;;;;;11.93;2.60;;;9.70;99.90;;;;;;5070949;28;20477;-45
2022/10/07 01:41:14;;;;;;;8.75;2.70;;;9.70;99.90;;;;;;5071105;28;20190;-45
2022/10/07 01:43:41;;;;;;;8.95;2.80;;;9.80;99.90;;;;;;5070165;28;20715;-47
2022/10/07 01:46:11;;;;;;;15.18;2.90;;;9.70;99.90;;;;;;5070283;28;20475;-45
2022/10/07 01:48:36;;;;;;;10.68;2.60;;;9.70;99.90;;;;;;5071096;28;20066;-47
2022/10/07 01:51:02;;;;;;;14.20;3.80;;;9.70;99.90;;;;;;5071052;28;20025;-46
2022/10/07 01:53:35;;;;;;;12.23;2.63;;;9.70;99.90;;;;;;5070179;28;20255;-45
2022/10/07 01:56:26;;;;;;;11.90;2.88;;;9.70;99.90;;;;;;5070657;28;20099;-46
2022/10/07 01:59:20;;;;;;;9.18;2.72;;;9.60;99.90;;;;;;5069680;28;20029;-45
2022/10/07 02:02:16;;;;;;;18.48;2.78;;;9.60;99.90;;;;;;5052083;28;20035;-44
2022/10/07 02:05:08;;;;;;;14.85;2.90;;;9.60;99.90;;;;;;5049896;28;20032;-45
2022/10/07 02:08:20;;;;;;;14.77;3.28;;;9.60;99.90;;;;;;5050451;28;20486;-45
2022/10/07 02:10:57;;;;;;;10.55;2.65;;;9.60;99.90;;;;;;5027958;28;20029;-45
2022/10/07 02:13:30;;;;;;;13.65;2.60;;;9.60;99.90;;;;;;5044963;28;20039;-46
2022/10/07 02:16:07;;;;;;;11.55;2.53;;;9.60;99.90;;;;;;5062057;28;20027;-45
2022/10/07 02:18:35;;;;;;;13.88;2.80;;;9.60;99.90;;;;;;5070371;28;20021;-44
2022/10/07 02:21:05;;;;;;;9.30;2.30;;;9.70;99.90;;;;;;5070017;28;20036;-44
2022/10/07 02:23:33;;;;;;;9.35;2.92;;;9.60;99.90;;;;;;5069502;28;20051;-45
2022/10/07 02:26:01;;;;;;;11.57;2.80;;;9.60;99.90;;;;;;5069983;28;20063;-45
2022/10/07 02:28:28;;;;;;;11.77;2.97;;;9.60;99.90;;;;;;5070185;28;20413;-45
2022/10/07 02:30:59;;;;;;;13.30;2.75;;;9.60;99.90;;;;;;5070029;28;20104;-45
2022/10/07 02:33:27;;;;;;;11.52;3.35;;;9.60;99.90;;;;;;5069502;28;20027;-46
2022/10/07 02:35:58;;;;;;;21.27;3.58;;;9.70;99.90;;;;;;5068459;28;20190;-46
2022/10/07 02:38:25;;;;;;;16.98;3.30;;;9.60;99.90;;;;;;5069715;28;20025;-46
2022/10/07 02:41:13;;;;;;;10.23;2.60;;;9.60;99.90;;;;;;5070122;28;20379;-45
2022/10/07 02:43:47;;;;;;;12.25;2.50;;;9.60;99.90;;;;;;5061528;28;20020;-45
2022/10/07 02:46:22;;;;;;;10.98;2.42;;;9.50;99.90;;;;;;5060226;28;20492;-45
2022/10/07 02:48:58;;;;;;;11.98;2.95;;;9.50;99.90;;;;;;5069743;28;20025;-45
2022/10/07 02:51:29;;;;;;;11.48;2.70;;;9.50;99.90;;;;;;5069763;28;20020;-45
2022/10/07 02:53:56;;;;;;;9.73;2.90;;;9.50;99.90;;;;;;5067795;28;20021;-47
2022/10/07 02:56:24;;;;;;;12.60;2.40;;;9.60;99.90;;;;;;5069704;28;20066;-44
2022/10/07 02:58:51;;;;;;;10.88;2.85;;;9.60;99.90;;;;;;5069354;28;20249;-45
2022/10/07 03:01:21;;;;;;;14.25;3.22;;;9.60;99.90;;;;;;5069546;28;20107;-45
2022/10/07 03:03:47;;;;;;;;;;;9.60;99.90;;;;;;5069799;28;20031;-46
2022/10/07 03:06:14;;;;;;;10.57;2.78;;;9.60;99.90;;;;;;5069544;28;19905;-45
2022/10/07 03:08:41;;;;;;;10.57;2.42;;;9.50;99.90;;;;;;5069433;28;20036;-45
2022/10/07 03:11:06;;;;;;;17.88;3.20;;;9.50;99.90;;;;;;5069403;28;20024;-46
2022/10/07 03:13:34;;;;;;;22.95;4.30;;;9.50;99.90;;;;;;5060175;28;20081;-45
2022/10/07 03:15:59;;;;;;;12.55;2.90;;;9.40;99.90;;;;;;5059685;28;20024;-45
2022/10/07 03:18:27;;;;;;;10.38;2.70;;;9.50;99.90;;;;;;5069396;28;20012;-45
2022/10/07 03:20:54;;;;;;;11.45;2.90;;;9.40;99.90;;;;;;5068343;28;20533;-45
2022/10/07 03:23:21;;;;;;;11.38;2.95;;;9.40;99.90;;;;;;5069038;28;20024;-44
2022/10/07 03:25:54;;;;;;;9.57;3.13;;;9.40;99.90;;;;;;5069386;28;20150;-46
2022/10/07 03:28:24;;;;;;;9.93;2.55;;;9.40;99.90;;;;;;5068945;28;20025;-46
2022/10/07 03:30:50;;;;;;;18.67;3.20;;;9.30;99.90;;;;;;5069719;28;20017;-45
2022/10/07 03:33:17;;;;;;;9.02;2.30;;;9.30;99.90;;;;;;5068706;28;20048;-45
2022/10/07 03:35:43;;;;;;;10.57;2.78;;;9.20;99.90;;;;;;5069227;28;20063;-44
2022/10/07 03:38:09;;;;;;;10.13;2.45;;;9.20;99.90;;;;;;5069161;28;20386;-45
2022/10/07 03:40:35;;;;;;;8.90;2.50;;;9.20;99.90;;;;;;5069061;28;20020;-45
2022/10/07 03:43:01;;;;;;;10.23;2.88;;;9.20;99.90;;;;;;5065917;28;20133;-46
2022/10/07 03:45:29;;;;;;;7.63;2.47;;;9.20;99.90;;;;;;5060524;28;20041;-45
2022/10/07 03:47:58;;;;;;;22.55;3.67;;;9.20;99.90;;;;;;5051701;28;20557;-45
2022/10/07 03:50:25;;;;;;;11.57;3.90;;;9.20;99.90;;;;;;5039170;28;20028;-46
2022/10/07 03:52:51;;;;;;;10.80;2.40;;;9.10;99.90;;;;;;5028728;28;20097;-46
2022/10/07 03:55:17;;;;;;;8.98;2.38;;;9.10;99.90;;;;;;5028993;28;20678;-45
2022/10/07 03:57:56;;;;;;;13.05;2.83;;;9.10;99.90;;;;;;5028955;28;20039;-46
2022/10/07 04:00:23;;;;;;;14.77;3.08;;;9.10;99.90;;;;;;5029647;28;20108;-44
2022/10/07 04:02:49;;;;;;;10.88;3.08;;;9.00;99.90;;;;;;5032912;28;20029;-46
2022/10/07 04:05:17;;;;;;;11.45;2.80;;;9.00;99.90;;;;;;5033595;28;20083;-46
2022/10/07 04:07:48;;;;;;;21.98;3.53;;;9.00;99.90;;;;;;5037502;28;20018;-47
2022/10/07 04:10:15;;;;;;;12.18;3.20;;;8.90;99.90;;;;;;5029329;28;20044;-45
2022/10/07 04:12:42;;;;;;;13.50;2.83;;;8.80;99.90;;;;;;5039849;28;20453;-48
2022/10/07 04:15:12;;;;;;;8.82;3.05;;;8.80;99.90;;;;;;5041409;28;20021;-48
2022/10/07 04:17:41;;;;;;;6.30;2.35;;;8.70;99.90;;;;;;5032737;28;20024;-46
2022/10/07 04:20:08;;;;;;;10.73;2.70;;;8.80;99.90;;;;;;5027366;28;20033;-45
2022/10/07 04:22:33;;;;;;;7.88;2.75;;;8.80;99.90;;;;;;5029887;28;20025;-45
2022/10/07 04:27:43;;;;;;;14.23;3.72;;;8.70;99.90;;;;;;5032567;28;20032;-46
2022/10/07 04:30:09;;;;;;;11.93;2.78;;;8.70;99.90;;;;;;5032780;28;20033;-48
2022/10/07 04:32:35;;;;;;;19.52;3.97;;;8.70;99.90;;;;;;5031961;28;20029;-45
2022/10/07 04:35:02;;;;;;;14.85;3.45;;;8.70;99.90;;;;;;5032217;28;20032;-49
2022/10/07 04:37:28;;;;;;;9.20;2.65;;;8.60;99.90;;;;;;5032418;28;20079;-46
2022/10/07 04:39:54;;;;;;;11.40;3.15;;;8.60;99.90;;;;;;5032404;28;20407;-48
2022/10/07 04:45:06;;;;;;;9.43;2.72;;;8.70;99.90;;;;;;5057947;28;20078;-46
2022/10/07 04:47:34;;;;;;;13.38;2.65;;;8.60;99.90;;;;;;5072029;28;20329;-46
2022/10/07 04:50:00;;;;;;;12.45;3.20;;;8.70;99.90;;;;;;5071968;28;20474;-46
2022/10/07 04:52:26;;;;;;;8.85;3.03;;;8.70;99.90;;;;;;5071835;28;20055;-45
2022/10/07 04:54:52;;;;;;;14.52;3.00;;;8.80;99.90;;;;;;5072064;28;20032;-44
2022/10/07 04:57:17;;;;;;;14.73;3.17;;;8.80;99.90;;;;;;5072160;28;20033;-47
2022/10/07 04:59:43;;;;;;;9.80;2.63;;;8.80;99.90;;;;;;5071476;28;20067;-47
2022/10/07 05:02:08;;;;;;;14.05;2.70;;;8.80;99.90;;;;;;5071678;28;20031;-45
2022/10/07 05:04:34;;;;;;;10.90;3.00;;;8.90;99.90;;;;;;5063665;28;20058;-45
2022/10/07 05:06:59;;;;;;;13.95;3.25;;;8.90;99.90;;;;;;5050237;28;20024;-45
2022/10/07 05:09:25;;;;;;;15.02;2.92;;;8.90;99.90;;;;;;5051662;28;20579;-45
2022/10/07 05:11:56;;;;;;;19.42;3.38;;;8.90;99.90;;;;;;5051832;28;20029;-46
2022/10/07 05:14:22;;;;;;;13.30;3.15;;;8.90;99.90;;;;;;5057502;28;20025;-46
2022/10/07 05:16:48;;;;;;;11.90;3.08;;;8.90;99.90;;;;;;5066408;28;20029;-45
2022/10/07 05:19:14;;;;;;;11.05;3.55;;;8.90;99.90;;;;;;5071495;28;20063;-46
2022/10/07 05:21:41;;;;;;;9.07;3.03;;;8.90;99.90;;;;;;5071458;28;20063;-48
2022/10/07 05:24:06;;;;;;;13.38;3.17;;;9.00;99.90;;;;;;5066805;28;20025;-46
2022/10/07 05:26:33;;;;;;;14.82;3.67;;;8.90;99.90;;;;;;5063414;28;20047;-48
2022/10/07 05:28:59;;;;;;;8.90;2.55;;;9.00;99.90;;;;;;5071296;28;20052;-45
2022/10/07 05:31:26;;;;;;;9.90;3.15;;;9.00;99.90;;;;;;5071169;28;20133;-44
2022/10/07 05:33:52;;;;;;;8.05;2.50;;;8.90;99.90;;;;;;5068541;28;20174;-45
2022/10/07 05:36:18;;;;;;;11.55;2.70;;;9.00;99.90;;;;;;5071332;28;20024;-45
2022/10/07 05:38:44;;;;;;;8.52;2.72;;;8.90;99.90;;;;;;5071341;28;20025;-45
2022/10/07 05:41:11;;;;;;;15.00;3.28;;;9.00;99.90;;;;;;5071155;28;20039;-45
2022/10/07 05:43:41;;;;;;;8.82;3.05;;;8.90;99.90;;;;;;5070287;28;20447;-45
2022/10/07 05:46:12;;;;;;;10.52;3.60;;;8.90;99.90;;;;;;5070658;28;20056;-45
2022/10/07 05:48:38;;;;;;;10.10;3.17;;;9.00;99.90;;;;;;5070761;28;20013;-45
2022/10/07 05:51:06;;;;;;;15.23;3.90;;;9.00;99.90;;;;;;5070707;28;20031;-45
2022/10/07 05:53:31;;;;;;;8.77;2.75;;;8.90;99.90;;;;;;5068232;28;20025;-45
2022/10/07 05:55:57;;;;;;;7.97;2.53;;;8.90;99.90;;;;;;5062470;28;20028;-46
2022/10/07 05:58:22;;;;;;;4.75;2.22;;;8.90;99.90;;;;;;5070323;28;20032;-45
2022/10/07 06:00:54;;;;;;;11.48;2.95;;;9.00;99.90;;;;;;5070307;28;20028;-45
2022/10/07 06:03:20;;;;;;;11.27;2.53;;;9.00;99.90;;;;;;5070048;28;20024;-45
2022/10/07 06:05:47;;;;;;;12.88;2.72;;;9.00;99.90;;;;;;5070201;28;20028;-45
2022/10/07 06:08:13;;;;;;;14.80;4.22;;;9.10;99.90;;;;;;5069145;28;20024;-46
2022/10/07 06:13:23;;;;;;;13.63;3.08;;;9.10;99.90;;;;;;5062498;28;20117;-45
2022/10/07 06:15:49;;;;;;;10.82;2.72;;;9.20;99.90;;;;;;5052278;28;20108;-46
2022/10/07 06:18:15;;;;;;;7.13;2.95;;;9.20;99.90;;;;;;5068094;28;20436;-47
2022/10/07 06:20:41;;;;;;;9.88;3.20;;;9.20;99.90;;;;;;5050298;28;20120;-46
2022/10/07 06:23:06;;;;;;;9.15;2.83;;;9.30;99.90;;;;;;5049883;28;20112;-45
2022/10/07 06:25:33;;;;;;;14.38;3.05;;;9.30;99.90;;;;;;5048962;28;20090;-46
2022/10/07 06:28:00;;;;;;;16.05;2.55;;;9.50;99.90;;;;;;5049702;28;20021;-46
2022/10/07 06:30:25;;;;;;;7.93;2.25;;;9.50;99.90;;;;;;5030935;28;20021;-44
2022/10/07 06:32:51;;;;;;;8.55;2.60;;;9.50;99.90;;;;;;5030950;28;20559;-47
2022/10/07 06:35:17;;;;;;;9.82;2.90;;;9.60;99.90;;;;;;5033589;28;20044;-45
2022/10/07 06:37:42;;;;;;;10.52;2.42;;;9.70;99.90;;;;;;5026346;28;20035;-45
2022/10/07 06:40:08;;;;;;;14.93;3.30;;;9.80;99.90;;;;;;5026594;28;20028;-45
2022/10/07 06:42:34;;;;;;;14.85;3.13;;;9.90;99.90;;;;;;5027384;28;20048;-45
2022/10/07 06:44:59;;;;;;;8.88;2.35;;;9.90;99.90;;;;;;5042449;28;20445;-44
2022/10/07 06:47:25;;;;;;;9.35;3.17;;;10.00;99.90;;;;;;5057328;28;20031;-45
2022/10/07 06:49:50;;;;;;;14.05;2.85;;;10.10;99.90;;;;;;5046196;28;20014;-45
2022/10/07 06:52:16;;;;;;;19.38;3.33;;;10.10;99.90;;;;;;5037980;28;20033;-45
2022/10/07 06:54:41;;;;;;;11.60;3.40;;;10.20;99.90;;;;;;5038382;28;20445;-45
2022/10/07 06:57:07;;;;;;;9.88;2.67;;;10.20;99.90;;;;;;5047966;28;20028;-45
2022/10/07 06:59:32;;;;;;;15.75;2.70;;;10.20;99.90;;;;;;5048868;28;20033;-45
2022/10/07 07:01:58;;;;;;;8.55;2.80;;;10.30;99.90;;;;;;5049084;28;20029;-47
2022/10/07 07:04:24;;;;;;;10.82;2.80;;;10.30;99.90;;;;;;5048770;28;20025;-45
2022/10/07 07:06:49;;;;;;;10.60;2.47;;;10.40;99.90;;;;;;5049100;28;20033;-45
2022/10/07 07:09:15;;;;;;;10.57;2.80;;;10.50;99.90;;;;;;5049109;28;20033;-47
2022/10/07 07:11:42;;;;;;;9.85;2.97;;;10.50;99.90;;;;;;5047492;28;20433;-49
2022/10/07 07:14:10;;;;;;;9.98;2.97;;;10.60;99.90;;;;;;5039680;28;20380;-46
2022/10/07 07:16:36;;;;;;;8.43;2.33;;;10.70;99.90;;;;;;5060653;28;20067;-47
2022/10/07 07:19:05;;;;;;;11.40;2.42;;;10.70;99.90;;;;;;5069102;28;20056;-45
2022/10/07 07:21:33;;;;;;;8.30;2.58;;;10.80;99.90;;;;;;5027659;28;20025;-45
2022/10/07 07:23:59;;;;;;;11.77;2.88;;;10.90;99.90;;;;;;5043744;28;20240;-47
2022/10/07 07:26:26;;;;;;;6.43;2.35;;;11.00;99.90;;;;;;5048715;28;20025;-45
2022/10/07 07:28:58;;;;;;;12.10;2.92;;;11.10;99.90;;;;;;5047884;28;20029;-45
2022/10/07 07:31:25;;;;;;;7.32;2.40;;;11.20;99.90;;;;;;5037639;28;20025;-47
2022/10/07 07:33:51;;;;;;;10.20;2.65;;;11.30;99.90;;;;;;5036766;28;20024;-45
2022/10/07 07:36:22;;;;;;;11.00;2.38;;;11.40;99.90;;;;;;5041857;28;20108;-46
2022/10/07 07:38:50;;;;;;;;;;;11.50;99.90;;;;;;5039549;28;20037;-46
2022/10/07 07:41:16;;;;;;;8.70;2.38;;;11.60;99.90;;;;;;5040066;28;20317;-46
2022/10/07 07:43:42;;;;;;;9.85;2.53;;;11.80;99.90;;;;;;5038397;28;20025;-45
2022/10/07 07:46:07;;;;;;;11.77;2.72;;;11.90;99.90;;;;;;5056283;28;20025;-45
2022/10/07 07:48:33;;;;;;;7.30;2.35;;;12.10;99.90;;;;;;5065821;28;20028;-46
2022/10/07 07:50:59;;;;;;;9.25;2.55;;;12.20;99.90;;;;;;5048974;28;20036;-45
2022/10/07 07:53:24;;;;;;;9.55;2.22;;;12.30;99.90;;;;;;5043343;28;20548;-46
2022/10/07 07:55:52;;;;;;;9.43;2.80;;;12.40;99.90;;;;;;5039335;28;20041;-48
2022/10/07 07:58:17;;;;;;;8.73;2.40;;;12.40;99.90;;;;;;5050101;28;20020;-46
2022/10/07 08:00:43;;;;;;;5.38;1.80;;;12.40;99.90;;;;;;5052293;28;20605;-45
2022/10/07 08:03:08;;;;;;;6.40;2.25;;;12.50;99.90;;;;;;5049343;28;20032;-47
2022/10/07 08:05:34;;;;;;;8.32;1.98;;;12.60;99.90;;;;;;5051284;28;20033;-49
2022/10/07 08:08:00;;;;;;;9.02;2.10;;;12.70;99.90;;;;;;5049638;28;20163;-47
2022/10/07 08:10:25;;;;;;;12.65;2.85;;;12.80;99.90;;;;;;5051205;28;20036;-47
2022/10/07 08:12:51;;;;;;;10.18;2.03;;;12.90;99.90;;;;;;5050540;28;20479;-46
2022/10/07 08:15:16;;;;;;;10.32;2.50;;;12.90;99.90;;;;;;5051378;28;20025;-46
2022/10/07 08:17:42;;;;;;;7.47;1.98;;;13.00;99.90;;;;;;5066651;28;20496;-46
2022/10/07 08:20:09;;;;;;;15.82;2.63;;;13.10;99.90;;;;;;5072537;28;20036;-46
2022/10/07 08:22:35;;;;;;;10.30;2.47;;;13.20;99.90;;;;;;5072369;28;20086;-46
2022/10/07 08:25:00;;;;;;;9.15;2.40;;;13.30;99.90;;;;;;5072400;28;20020;-47
2022/10/07 08:27:27;;;;;;;14.70;2.20;;;13.40;99.90;;;;;;5072686;28;20020;-46
2022/10/07 08:29:52;;;;;;;7.60;2.00;;;13.60;99.90;;;;;;5070783;28;20112;-45
2022/10/07 08:32:18;;;;;;;10.02;2.38;;;13.70;99.90;;;;;;5071080;28;20108;-46
2022/10/07 08:34:43;;;;;;;9.23;1.88;;;13.80;99.90;;;;;;5072550;28;20025;-46
2022/10/07 08:37:08;;;;;;;9.10;1.95;;;14.00;99.90;;;;;;5072294;28;20489;-46
2022/10/07 08:39:34;;;;;;;6.93;2.30;;;14.30;99.90;;;;;;5072323;28;20028;-49
2022/10/07 08:42:11;;;;;;;6.38;1.95;;;15.30;99.90;;;;;;5072136;28;20032;-47
2022/10/07 08:44:40;;;;;;;7.03;1.95;;;17.10;96.90;;;;;;5057636;28;20035;-49
2022/10/07 08:47:13;;;;;;;5.63;2.08;;;18.40;93.70;;;;;;5063637;28;20020;-46
2022/10/07 08:50:12;;;;;;;7.38;2.17;;;19.50;90.20;;;;;;5072466;28;20067;-47
2022/10/07 08:52:45;;;;;;;6.47;2.33;;;21.40;86.20;;;;;;5071539;28;20035;-44
2022/10/07 08:55:32;;;;;;;8.55;2.13;;;22.60;78.10;;;;;;5060078;28;20502;-44
2022/10/07 08:58:35;;;;;;;7.63;2.00;;;23.30;74.70;;;;;;5072185;28;20069;-46
2022/10/07 09:01:26;;;;;;;7.85;2.20;;;24.90;69.00;;;;;;5072462;28;20386;-46
2022/10/07 09:04:31;;;;;;;7.45;2.10;;;25.30;64.60;;;;;;5071575;28;20024;-46
2022/10/07 09:07:14;;;;;;;5.45;2.00;;;26.50;60.70;;;;;;5071750;28;20033;-45
2022/10/07 09:09:54;;;;;;;6.22;2.15;;;26.40;59.20;;;;;;5071891;28;20027;-46
2022/10/07 09:12:25;;;;;;;7.50;2.13;;;25.90;58.30;;;;;;5071267;28;20016;-46
2022/10/07 09:14:55;;;;;;;4.72;1.90;;;26.00;60.10;;;;;;5057372;28;20111;-46
2022/10/07 09:17:31;;;;;;;7.70;2.00;;;27.40;58.00;;;;;;5063200;28;20031;-47
2022/10/07 09:20:02;;;;;;;6.70;2.08;;;27.80;56.30;;;;;;5071299;28;20032;-46
2022/10/07 09:22:37;;;;;;;6.40;1.83;;;27.80;55.70;;;;;;5070953;28;20020;-45
2022/10/07 09:25:25;;;;;;;9.43;2.50;;;29.20;53.30;;;;;;5068442;28;20117;-47
2022/10/07 09:27:53;;;;;;;4.75;1.92;;;26.20;55.20;;;;;;5066771;28;20555;-46
2022/10/07 09:30:20;;;;;;;10.70;2.55;;;26.60;57.30;;;;;;5071248;28;20024;-46
2022/10/07 09:32:48;;;;;;;7.82;2.10;;;26.60;57.30;;;;;;5071113;28;20024;-48
2022/10/07 09:35:20;;;;;;;6.55;2.42;;;25.30;57.60;;;;;;5071441;28;20028;-50
2022/10/07 09:38:02;;;;;;;9.07;2.40;;;26.40;55.70;;;;;;5071361;28;20027;-48
2022/10/07 09:41:13;;;;;;;10.20;3.00;;;26.70;56.20;;;;;;5071078;28;20113;-46
2022/10/07 09:43:23;;;;;;;5.70;2.45;;;26.20;55.80;;;;;;5070253;28;20111;-46
2022/10/07 09:45:49;;;;;;;9.65;2.25;;;27.40;57.10;;;;;;5069163;28;20189;-47
2022/10/07 09:48:19;;;;;;;8.18;2.10;;;28.30;55.30;;;;;;5070923;28;20020;-47
2022/10/07 09:50:46;;;;;;;7.40;2.05;;;28.40;52.70;;;;;;5070858;28;20124;-47
2022/10/07 09:53:19;;;;;;;10.82;2.97;;;28.80;53.40;;;;;;5070256;28;20071;-48
2022/10/07 09:55:44;;;;;;;7.43;2.20;;;27.70;51.50;;;;;;5062101;28;20056;-46
2022/10/07 09:58:28;;;;;;;6.22;2.25;;;27.90;55.50;;;;;;5068520;28;20060;-47
2022/10/07 10:00:59;;;;;;;8.10;2.80;;;28.00;52.90;;;;;;5070266;28;20093;-48
2022/10/07 10:03:30;;;;;;;7.38;2.30;;;28.00;53.30;;;;;;5070422;28;20378;-49
2022/10/07 10:06:01;;;;;;;6.22;2.33;;;28.90;54.80;;;;;;5070353;28;20058;-46
2022/10/07 10:08:29;;;;;;;8.45;2.35;;;28.60;53.30;;;;;;5070598;28;20017;-49
2022/10/07 10:10:57;;;;;;;5.63;2.55;;;29.60;51.70;;;;;;5069128;28;20024;-49
2022/10/07 10:13:26;;;;;;;10.93;3.03;;;29.80;50.40;;;;;;5069867;28;20021;-47
2022/10/07 10:15:51;;;;;;;5.80;2.10;;;28.70;50.80;;;;;;5053283;28;20498;-48
2022/10/07 10:18:39;;;;;;;8.20;2.63;;;29.50;52.00;;;;;;5067912;28;20028;-48
2022/10/07 10:21:28;;;;;;;9.48;2.70;;;30.80;50.40;;;;;;5069652;28;20153;-47
2022/10/07 10:23:59;;;;;;;7.22;2.25;;;30.30;48.80;;;;;;5069979;28;20024;-47
2022/10/07 10:26:56;;;;;;;6.22;2.30;;;30.80;50.40;;;;;;5070239;28;20047;-47
2022/10/07 10:29:35;;;;;;;6.57;2.47;;;30.10;49.90;;;;;;5053147;28;20700;-48
2022/10/07 10:32:01;;;;;;;5.68;2.20;;;30.60;49.10;;;;;;5067222;28;20056;-47
2022/10/07 10:34:44;;;;;;;8.50;2.53;;;30.70;48.80;;;;;;5069843;28;20059;-47
2022/10/07 10:37:19;;;;;;;9.93;2.53;;;29.60;51.70;;;;;;5069972;28;20021;-47
2022/10/07 10:39:56;;;;;;;7.55;2.42;;;29.50;49.90;;;;;;5069788;28;20086;-48
2022/10/07 10:42:29;;;;;;;10.02;3.03;;;29.10;51.90;;;;;;5068536;28;20060;-47
2022/10/07 10:45:06;;;;;;;6.70;1.92;;;29.40;49.20;;;;;;5069615;28;20029;-48
2022/10/07 10:47:50;;;;;;;12.48;2.53;;;30.00;49.60;;;;;;5069960;28;20028;-46
2022/10/07 10:50:26;;;;;;;6.47;2.47;;;30.00;47.70;;;;;;5069675;28;20025;-47
2022/10/07 10:53:33;;;;;;;6.93;2.10;;;29.70;49.60;;;;;;5069457;28;20080;-47
2022/10/07 10:56:34;;;;;;;14.05;3.10;;;30.50;48.50;;;;;;5068578;28;20031;-48
2022/10/07 10:59:18;;;;;;;9.60;2.33;;;30.20;49.40;;;;;;5066366;28;20545;-47
2022/10/07 11:01:47;;;;;;;10.80;2.50;;;30.20;48.10;;;;;;5063965;28;20232;-47
2022/10/07 11:04:56;;;;;;;7.47;2.22;;;29.20;50.90;;;;;;5069128;28;20036;-48
2022/10/07 11:07:29;;;;;;;7.40;2.00;;;29.50;49.90;;;;;;5061044;28;20040;-47
2022/10/07 11:10:03;;;;;;;7.70;2.35;;;29.50;49.10;;;;;;5069994;28;20033;-49
2022/10/07 11:12:36;;;;;;;7.80;2.28;;;30.40;47.80;;;;;;5069125;28;20021;-47
2022/10/07 11:15:29;;;;;;;5.93;2.63;;;29.60;48.20;;;;;;5060666;28;20398;-48
2022/10/07 11:18:00;;;;;;;8.32;2.30;;;29.80;46.80;;;;;;5065244;28;20113;-47
2022/10/07 11:20:35;;;;;;;7.55;2.10;;;28.10;49.30;;;;;;5067985;28;20043;-47
2022/10/07 11:23:27;;;;;;;7.53;2.05;;;27.60;50.50;;;;;;5067522;28;20028;-47
2022/10/07 11:26:15;;;;;;;7.55;2.42;;;28.00;49.50;;;;;;5052108;28;20025;-48
2022/10/07 11:28:42;;;;;;;9.13;2.53;;;27.30;49.40;;;;;;5029584;28;20045;-49
2022/10/07 11:31:22;;;;;;;5.63;2.10;;;27.80;50.40;;;;;;5028018;28;20040;-48
2022/10/07 11:34:17;;;;;;;7.00;2.60;;;28.20;51.20;;;;;;5031715;28;20032;-47
2022/10/07 11:37:02;;;;;;;10.10;2.63;;;27.70;51.40;;;;;;5033716;28;20026;-48
2022/10/07 11:39:28;;;;;;;6.50;2.08;;;26.60;50.30;;;;;;5033466;28;20040;-48
2022/10/07 11:41:58;;;;;;;6.93;2.42;;;27.20;51.30;;;;;;5033532;28;20091;-49
2022/10/07 11:44:38;;;;;;;9.10;2.40;;;27.60;50.80;;;;;;5032323;28;20025;-47
2022/10/07 11:47:10;;;;;;;6.75;2.60;;;27.00;51.30;;;;;;5033243;28;20052;-49
2022/10/07 11:49:45;;;;;;;8.80;2.45;;;27.00;50.20;;;;;;5033199;28;20558;-47
2022/10/07 11:52:23;;;;;;;7.32;2.70;;;26.90;53.70;;;;;;5033104;28;20021;-48
2022/10/07 11:55:01;;;;;;;7.53;2.88;;;27.50;51.70;;;;;;5055616;28;20037;-46
2022/10/07 11:57:31;;;;;;;5.55;2.70;;;27.80;52.50;;;;;;5033185;28;20395;-47
2022/10/07 12:00:07;;;;;;;9.45;3.10;;;27.70;50.40;;;;;;5032807;28;20497;-47
2022/10/07 12:02:38;;;;;;;7.63;2.30;;;27.30;50.80;;;;;;5032669;28;20283;-47
2022/10/07 12:05:06;;;;;;;7.22;3.05;;;27.00;51.90;;;;;;5033058;28;20034;-46
2022/10/07 12:07:35;;;;;;;9.32;2.80;;;26.70;52.00;;;;;;5032962;28;20029;-47
2022/10/07 12:10:02;;;;;;;6.38;2.58;;;26.20;52.70;;;;;;5032819;28;20037;-47
2022/10/07 12:12:45;;;;;;;9.93;2.95;;;25.70;52.20;;;;;;5032639;28;20028;-47
2022/10/07 12:15:25;;;;;;;10.80;3.00;;;26.00;52.50;;;;;;5050063;28;20030;-46
2022/10/07 12:18:16;;;;;;;6.80;2.40;;;26.10;53.60;;;;;;5067917;28;20429;-46
2022/10/07 12:20:51;;;;;;;11.38;3.10;;;25.30;53.60;;;;;;5072567;28;20382;-47
2022/10/07 12:23:24;;;;;;;7.25;2.25;;;24.70;56.60;;;;;;5072172;28;20028;-46
2022/10/07 12:25:52;;;;;;;11.50;2.70;;;24.60;56.10;;;;;;5071164;28;20032;-46
2022/10/07 12:28:41;;;;;;;8.55;2.10;;;23.70;56.10;;;;;;5061956;28;20602;-45
2022/10/07 12:31:16;;;;;;;10.50;2.38;;;23.50;59.30;;;;;;5068745;28;20154;-45
2022/10/07 12:33:44;;;;;;;5.90;2.05;;;23.70;58.50;;;;;;5071835;28;20481;-46
2022/10/07 12:36:26;;;;;;;5.38;1.88;;;23.60;58.30;;;;;;5072270;28;20029;-46
2022/10/07 12:38:55;;;;;;;11.20;2.63;;;23.10;59.30;;;;;;5072186;28;20047;-47
2022/10/07 12:41:24;;;;;;;8.82;2.78;;;23.10;59.00;;;;;;5070672;28;20504;-45
2022/10/07 12:43:57;;;;;;;7.13;2.08;;;23.10;57.50;;;;;;5071244;28;20025;-47
2022/10/07 12:46:25;;;;;;;10.45;2.20;;;23.00;58.80;;;;;;5071907;28;20036;-45
2022/10/07 12:49:02;;;;;;;19.65;3.33;;;22.60;59.10;;;;;;5072096;28;20024;-46
2022/10/07 12:51:39;;;;;;;7.68;2.65;;;22.50;61.30;;;;;;5071988;28;20020;-47
2022/10/07 12:54:22;;;;;;;12.75;3.20;;;22.10;61.60;;;;;;5071639;28;20056;-46
2022/10/07 12:56:48;;;;;;;11.93;2.50;;;22.10;60.90;;;;;;5069821;28;20032;-45
2022/10/07 12:59:48;;;;;;;6.05;2.38;;;22.10;62.70;;;;;;5061893;28;20021;-46
2022/10/07 13:02:32;;;;;;;7.75;2.75;;;22.20;60.80;;;;;;5071761;28;20044;-48
2022/10/07 13:05:28;;;;;;;10.38;2.88;;;22.20;60.70;;;;;;5070713;28;20470;-47
2022/10/07 13:08:08;;;;;;;10.07;2.70;;;22.30;62.10;;;;;;5071759;28;20016;-46
2022/10/07 13:10:40;;;;;;;7.43;1.92;;;22.10;60.70;;;;;;5070327;28;20020;-45
2022/10/07 13:13:15;;;;;;;10.65;2.33;;;22.00;63.10;;;;;;5071125;28;20024;-45
2022/10/07 13:15:48;;;;;;;7.32;2.38;;;22.00;62.70;;;;;;5064039;28;20413;-45